createdAt,value
2022-08-16T00:01:24.684Z,16.80
2022-08-16T00:03:53.475Z,16.77
2022-08-16T00:06:21.430Z,16.74
2022-08-16T00:08:49.670Z,16.69
2022-08-16T00:11:16.951Z,16.62
2022-08-16T00:13:53.861Z,16.53
2022-08-16T00:17:01.098Z,16.43
2022-08-16T00:19:24.720Z,16.42
2022-08-16T00:22:01.701Z,16.29
2022-08-16T00:24:34.550Z,16.27
2022-08-16T00:27:03.663Z,16.30
2022-08-16T00:29:31.830Z,16.19
2022-08-16T00:32:06.187Z,16.23
2022-08-16T00:34:44.584Z,16.28
2022-08-16T00:37:24.677Z,16.24
2022-08-16T00:39:57.631Z,16.33
2022-08-16T00:42:31.618Z,16.21
2022-08-16T00:45:36.365Z,16.14
2022-08-16T00:48:31.016Z,16.12
2022-08-16T00:50:55.686Z,16.20
2022-08-16T00:53:23.828Z,16.21
2022-08-16T00:55:57.248Z,16.22
2022-08-16T00:58:34.507Z,16.30
2022-08-16T01:01:08.473Z,16.39
2022-08-16T01:03:41.666Z,16.49
2022-08-16T01:06:40.016Z,16.54
2022-08-16T01:08:59.874Z,16.54
2022-08-16T01:11:29.464Z,16.57
2022-08-16T01:14:04.777Z,16.53
2022-08-16T01:16:32.227Z,16.50
2022-08-16T01:19:13.632Z,16.44
2022-08-16T01:22:57.620Z,16.41
2022-08-16T01:25:02.417Z,16.34
2022-08-16T01:27:39.637Z,16.32
2022-08-16T01:30:29.787Z,16.33
2022-08-16T01:33:14.604Z,16.26
2022-08-16T01:35:52.771Z,16.36
2022-08-16T01:38:49.116Z,16.35
2022-08-16T01:41:30.034Z,16.33
2022-08-16T01:44:01.041Z,16.30
2022-08-16T01:46:40.201Z,16.24
2022-08-16T01:49:11.723Z,16.23
2022-08-16T01:51:43.651Z,16.13
2022-08-16T01:54:13.132Z,16.12
2022-08-16T01:56:40.991Z,16.07
2022-08-16T01:59:15.649Z,16.12
2022-08-16T02:01:49.545Z,16.04
2022-08-16T02:04:48.247Z,15.97
2022-08-16T02:07:08.941Z,15.91
2022-08-16T02:09:39.582Z,15.85
2022-08-16T02:12:49.512Z,15.75
2022-08-16T02:14:57.023Z,15.67
2022-08-16T02:17:28.560Z,15.73
2022-08-16T02:19:58.907Z,15.66
2022-08-16T02:22:35.042Z,15.67
2022-08-16T02:25:16.104Z,15.60
2022-08-16T02:27:45.456Z,15.62
2022-08-16T02:30:36.540Z,15.57
2022-08-16T02:33:10.291Z,15.40
2022-08-16T02:35:53.669Z,15.44
2022-08-16T02:38:21.477Z,15.36
2022-08-16T02:40:48.984Z,15.37
2022-08-16T02:43:16.149Z,15.29
2022-08-16T02:45:43.516Z,15.23
2022-08-16T02:48:29.261Z,15.16
2022-08-16T02:51:10.355Z,15.04
2022-08-16T02:53:43.965Z,14.75
2022-08-16T02:56:17.113Z,14.78
2022-08-16T02:58:49.395Z,14.87
2022-08-16T03:01:36.569Z,14.93
2022-08-16T03:04:41.538Z,14.96
2022-08-16T03:06:56.648Z,14.88
2022-08-16T03:09:28.841Z,14.93
2022-08-16T03:11:57.196Z,14.91
2022-08-16T03:14:25.419Z,14.96
2022-08-16T03:16:59.706Z,14.93
2022-08-16T03:19:48.746Z,14.87
2022-08-16T03:22:29.009Z,14.70
2022-08-16T03:25:02.087Z,14.77
2022-08-16T03:27:33.708Z,14.77
2022-08-16T03:30:23.842Z,14.76
2022-08-16T03:32:52.139Z,14.77
2022-08-16T03:35:23.099Z,14.74
2022-08-16T03:38:02.537Z,14.68
2022-08-16T03:40:34.035Z,14.56
2022-08-16T03:43:20.688Z,14.49
2022-08-16T03:45:49.629Z,14.58
2022-08-16T03:48:36.265Z,14.61
2022-08-16T03:51:08.619Z,14.60
2022-08-16T03:53:38.161Z,14.51
2022-08-16T03:56:07.940Z,14.51
2022-08-16T03:58:45.849Z,14.45
2022-08-16T04:01:15.293Z,14.59
2022-08-16T04:03:44.206Z,14.53
2022-08-16T04:06:11.247Z,14.51
2022-08-16T04:08:39.529Z,14.38
2022-08-16T04:11:06.890Z,14.44
2022-08-16T04:14:00.921Z,14.41
2022-08-16T04:16:27.470Z,14.43
2022-08-16T04:19:02.233Z,14.47
2022-08-16T04:21:33.389Z,14.41
2022-08-16T04:24:02.205Z,14.48
2022-08-16T04:26:30.974Z,14.43
2022-08-16T04:29:17.017Z,14.26
2022-08-16T04:31:56.095Z,14.21
2022-08-16T04:34:29.234Z,14.18
2022-08-16T04:37:01.078Z,14.26
2022-08-16T04:39:36.596Z,14.24
2022-08-16T04:42:13.257Z,14.35
2022-08-16T04:44:54.320Z,14.23
2022-08-16T04:47:31.656Z,14.10
2022-08-16T04:50:12.690Z,14.15
2022-08-16T04:52:42.324Z,14.19
2022-08-16T04:55:17.426Z,14.12
2022-08-16T04:57:53.755Z,13.94
2022-08-16T05:00:32.373Z,13.85
2022-08-16T05:03:07.397Z,13.81
2022-08-16T05:05:45.078Z,13.75
2022-08-16T05:08:29.654Z,13.81
2022-08-16T05:11:05.380Z,13.67
2022-08-16T05:13:40.614Z,13.67
2022-08-16T05:16:20.313Z,13.71
2022-08-16T05:18:51.093Z,13.79
2022-08-16T05:21:20.937Z,13.71
2022-08-16T05:23:51.787Z,13.69
2022-08-16T05:26:27.978Z,13.71
2022-08-16T05:28:57.406Z,13.88
2022-08-16T05:31:30.377Z,14.00
2022-08-16T05:34:00.243Z,13.93
2022-08-16T05:36:33.862Z,14.02
2022-08-16T05:39:04.413Z,14.09
2022-08-16T05:41:31.243Z,14.11
2022-08-16T05:44:05.278Z,14.19
2022-08-16T05:46:32.690Z,14.31
2022-08-16T05:49:05.777Z,14.38
2022-08-16T05:51:40.185Z,14.35
2022-08-16T05:54:11.439Z,14.47
2022-08-16T05:56:42.914Z,14.58
2022-08-16T05:59:10.784Z,14.58
2022-08-16T06:01:39.644Z,14.69
2022-08-16T06:04:13.357Z,14.79
2022-08-16T06:06:56.956Z,14.86
2022-08-16T06:09:42.816Z,14.96
2022-08-16T06:12:28.033Z,15.06
2022-08-16T06:15:07.848Z,15.15
2022-08-16T06:17:41.554Z,15.19
2022-08-16T06:20:18.518Z,15.34
2022-08-16T06:22:58.551Z,15.45
2022-08-16T06:25:36.523Z,15.48
2022-08-16T06:28:17.055Z,15.52
2022-08-16T06:30:57.841Z,15.64
2022-08-16T06:33:24.870Z,15.83
2022-08-16T06:35:54.962Z,15.95
2022-08-16T06:38:32.881Z,16.03
2022-08-16T06:41:06.314Z,16.16
2022-08-16T06:43:40.695Z,16.30
2022-08-16T06:46:12.873Z,16.31
2022-08-16T06:48:43.192Z,16.45
2022-08-16T06:51:10.841Z,16.57
2022-08-16T06:53:38.154Z,16.74
2022-08-16T06:56:14.747Z,16.85
2022-08-16T06:58:52.677Z,17.00
2022-08-16T07:01:43.270Z,17.14
2022-08-16T07:04:10.354Z,17.29
2022-08-16T07:06:40.298Z,17.40
2022-08-16T07:09:15.936Z,17.63
2022-08-16T07:11:47.420Z,17.92
2022-08-16T07:14:23.796Z,17.98
2022-08-16T07:16:55.180Z,18.19
2022-08-16T07:19:22.033Z,18.32
2022-08-16T07:22:37.528Z,18.35
2022-08-16T07:24:55.733Z,18.60
2022-08-16T07:27:22.533Z,18.84
2022-08-16T07:29:51.630Z,18.91
2022-08-16T07:32:29.442Z,19.14
2022-08-16T07:34:58.549Z,19.27
2022-08-16T07:37:25.680Z,19.46
2022-08-16T07:39:54.630Z,19.60
2022-08-16T07:42:28.649Z,19.78
2022-08-16T07:45:10.076Z,19.99
2022-08-16T07:47:37.333Z,20.02
2022-08-16T07:50:05.700Z,20.18
2022-08-16T07:52:34.984Z,20.12
2022-08-16T07:55:07.445Z,20.31
2022-08-16T07:57:44.282Z,20.56
2022-08-16T08:00:21.446Z,20.69
2022-08-16T08:02:53.724Z,20.88
2022-08-16T08:05:25.566Z,21.06
2022-08-16T08:08:11.983Z,21.12
2022-08-16T08:10:51.295Z,21.29
2022-08-16T08:13:18.413Z,21.38
2022-08-16T08:15:52.528Z,21.49
2022-08-16T08:18:30.586Z,21.49
2022-08-16T08:20:59.506Z,21.70
2022-08-16T08:23:27.749Z,21.81
2022-08-16T08:25:55.943Z,21.76
2022-08-16T08:28:23.209Z,21.65
2022-08-16T08:31:01.477Z,21.52
2022-08-16T08:33:31.663Z,21.84
2022-08-16T08:36:01.476Z,22.00
2022-08-16T08:38:44.049Z,22.29
2022-08-16T08:41:18.298Z,21.89
2022-08-16T08:43:46.597Z,22.14
2022-08-16T08:46:18.293Z,22.56
2022-08-16T08:49:00.019Z,22.73
2022-08-16T08:51:32.096Z,22.86
2022-08-16T08:54:06.535Z,22.80
2022-08-16T08:56:37.559Z,23.08
2022-08-16T08:59:16.422Z,23.32
2022-08-16T09:01:57.311Z,23.54
2022-08-16T09:04:27.350Z,23.76
2022-08-16T09:06:56.003Z,23.76
2022-08-16T09:09:25.185Z,24.02
2022-08-16T09:11:53.493Z,24.11
2022-08-16T09:14:24.140Z,24.37
2022-08-16T09:17:01.662Z,24.67
2022-08-16T09:19:32.877Z,24.96
2022-08-16T09:22:01.170Z,24.84
2022-08-16T09:24:46.388Z,24.69
2022-08-16T09:27:14.909Z,24.49
2022-08-16T09:29:44.546Z,24.69
2022-08-16T09:32:28.781Z,25.01
2022-08-16T09:34:58.370Z,25.17
2022-08-16T09:37:36.820Z,25.12
2022-08-16T09:40:32.620Z,25.25
2022-08-16T09:42:58.744Z,25.23
2022-08-16T09:45:28.634Z,25.59
2022-08-16T09:47:57.586Z,25.60
2022-08-16T09:50:37.199Z,25.68
2022-08-16T09:53:16.088Z,25.99
2022-08-16T09:55:49.608Z,25.78
2022-08-16T09:58:41.481Z,25.96
2022-08-16T10:01:11.601Z,25.98
2022-08-16T10:04:01.711Z,26.22
2022-08-16T10:06:33.541Z,26.14
2022-08-16T10:09:08.234Z,26.38
2022-08-16T10:11:55.267Z,26.39
2022-08-16T10:14:24.876Z,26.38
2022-08-16T10:17:04.262Z,26.47
2022-08-16T10:19:32.444Z,26.27
2022-08-16T10:22:04.927Z,26.45
2022-08-16T10:24:33.873Z,25.84
2022-08-16T10:27:26.060Z,26.13
2022-08-16T10:30:00.924Z,26.41
2022-08-16T10:32:35.020Z,26.44
2022-08-16T10:35:03.729Z,26.53
2022-08-16T10:37:32.237Z,26.72
2022-08-16T10:40:05.636Z,26.99
2022-08-16T10:42:32.452Z,26.79
2022-08-16T10:45:00.414Z,26.74
2022-08-16T10:47:30.439Z,27.03
2022-08-16T10:50:00.496Z,27.02
2022-08-16T10:52:27.421Z,27.04
2022-08-16T10:55:40.256Z,27.09
2022-08-16T10:57:49.226Z,27.38
2022-08-16T11:00:21.168Z,26.95
2022-08-16T11:02:59.422Z,27.34
2022-08-16T11:08:35.594Z,27.28
2022-08-16T11:11:07.606Z,27.16
2022-08-16T11:17:02.351Z,27.38
2022-08-16T11:19:15.916Z,27.72
2022-08-16T11:24:42.735Z,27.02
2022-08-16T11:27:20.509Z,27.44
2022-08-16T11:29:52.032Z,27.61
2022-08-16T11:32:19.965Z,27.47
2022-08-16T11:35:10.242Z,27.62
2022-08-16T11:38:23.923Z,27.85
2022-08-16T11:40:32.280Z,28.15
2022-08-16T11:43:01.559Z,28.54
2022-08-16T11:45:33.599Z,28.07
2022-08-16T11:48:06.314Z,28.27
2022-08-16T11:50:34.413Z,27.90
2022-08-16T11:53:04.199Z,28.32
2022-08-16T11:55:31.294Z,28.45
2022-08-16T11:57:58.284Z,28.74
2022-08-16T12:00:49.864Z,28.92
2022-08-16T12:03:12.480Z,28.94
2022-08-16T12:05:41.464Z,29.09
2022-08-16T12:08:09.857Z,28.90
2022-08-16T12:10:41.021Z,28.58
2022-08-16T12:13:11.064Z,29.00
2022-08-16T12:15:38.394Z,29.10
2022-08-16T12:18:07.701Z,28.70
2022-08-16T12:20:40.535Z,28.87
2022-08-16T12:23:08.077Z,29.10
2022-08-16T12:25:36.016Z,29.44
2022-08-16T12:28:07.662Z,29.68
2022-08-16T12:30:42.486Z,29.24
2022-08-16T12:33:12.545Z,29.33
2022-08-16T12:35:40.744Z,29.15
2022-08-16T12:38:37.973Z,29.58
2022-08-16T12:40:55.602Z,29.87
2022-08-16T12:43:25.504Z,30.25
2022-08-16T12:45:55.687Z,30.61
2022-08-16T12:48:46.962Z,30.44
2022-08-16T12:51:22.237Z,30.46
2022-08-16T12:53:54.214Z,30.10
2022-08-16T12:56:26.129Z,30.41
2022-08-16T12:58:55.376Z,30.15
2022-08-16T13:01:28.775Z,30.18
2022-08-16T13:04:11.969Z,29.88
2022-08-16T13:06:48.723Z,29.73
2022-08-16T13:09:26.403Z,30.01
2022-08-16T13:12:18.935Z,30.28
2022-08-16T13:14:48.001Z,30.19
2022-08-16T13:17:26.342Z,30.18
2022-08-16T13:20:07.108Z,30.17
2022-08-16T13:22:42.686Z,30.29
2022-08-16T13:25:17.421Z,30.13
2022-08-16T13:28:02.860Z,30.45
2022-08-16T13:30:41.959Z,30.76
2022-08-16T13:33:27.696Z,30.64
2022-08-16T13:36:00.220Z,30.82
2022-08-16T13:38:30.213Z,31.03
2022-08-16T13:41:02.660Z,30.58
2022-08-16T13:43:32.683Z,30.41
2022-08-16T13:46:04.615Z,30.65
2022-08-16T13:48:43.291Z,30.82
2022-08-16T13:51:18.590Z,31.10
2022-08-16T13:53:54.370Z,31.51
2022-08-16T13:56:26.120Z,31.81
2022-08-16T13:59:14.312Z,32.08
2022-08-16T14:01:55.642Z,32.20
2022-08-16T14:04:27.294Z,32.03
2022-08-16T14:06:57.204Z,31.99
2022-08-16T14:09:25.152Z,31.97
2022-08-16T14:11:54.568Z,31.68
2022-08-16T14:14:28.872Z,31.61
2022-08-16T14:16:58.765Z,30.89
2022-08-16T14:19:27.935Z,30.91
2022-08-16T14:22:15.204Z,30.59
2022-08-16T14:24:50.210Z,31.36
2022-08-16T14:27:19.703Z,31.89
2022-08-16T14:29:50.102Z,32.24
2022-08-16T14:32:32.705Z,32.65
2022-08-16T14:35:08.856Z,32.24
2022-08-16T14:37:37.312Z,32.19
2022-08-16T14:40:08.101Z,33.07
2022-08-16T14:42:36.588Z,34.09
2022-08-16T14:45:06.450Z,34.54
2022-08-16T14:47:37.284Z,35.11
2022-08-16T14:50:13.484Z,35.29
2022-08-16T14:52:56.745Z,34.91
2022-08-16T14:55:26.750Z,34.61
2022-08-16T14:57:54.586Z,35.05
2022-08-16T15:00:27.167Z,36.30
2022-08-16T15:03:04.507Z,36.63
2022-08-16T15:08:19.633Z,36.30
2022-08-16T15:10:47.644Z,36.54
2022-08-16T15:13:15.179Z,36.16
2022-08-16T15:15:43.551Z,37.02
2022-08-16T15:18:12.207Z,36.97
2022-08-16T15:20:41.490Z,36.50
2022-08-16T15:23:10.034Z,35.64
2022-08-16T15:25:47.385Z,36.10
2022-08-16T15:28:31.532Z,36.78
2022-08-16T15:31:04.529Z,37.05
2022-08-16T15:33:48.573Z,35.79
2022-08-16T15:36:19.357Z,34.62
2022-08-16T15:38:56.272Z,33.73
2022-08-16T15:41:56.196Z,32.51
2022-08-16T15:44:26.237Z,32.10
2022-08-16T15:46:58.526Z,31.80
2022-08-16T15:49:37.027Z,32.00
2022-08-16T15:52:20.859Z,31.85
2022-08-16T15:54:55.975Z,31.50
2022-08-16T15:57:26.843Z,31.05
2022-08-16T15:59:56.277Z,30.67
2022-08-16T16:02:33.519Z,30.61
2022-08-16T16:05:04.654Z,30.65
2022-08-16T16:07:33.382Z,30.73
2022-08-16T16:10:05.544Z,30.62
2022-08-16T16:12:51.044Z,30.56
2022-08-16T16:15:29.521Z,30.37
2022-08-16T16:17:57.576Z,30.21
2022-08-16T16:20:28.666Z,29.97
2022-08-16T16:23:01.193Z,29.78
2022-08-16T16:25:29.304Z,29.76
2022-08-16T16:27:59.934Z,29.58
2022-08-16T16:30:33.437Z,29.65
2022-08-16T16:33:21.444Z,29.78
2022-08-16T16:35:55.296Z,29.80
2022-08-16T16:38:30.719Z,29.61
2022-08-16T16:41:08.780Z,29.62
2022-08-16T16:43:41.704Z,29.59
2022-08-16T16:46:40.186Z,29.56
2022-08-16T16:48:58.132Z,29.48
2022-08-16T16:51:28.066Z,29.42
2022-08-16T16:53:57.134Z,29.31
2022-08-16T16:56:31.425Z,29.13
2022-08-16T16:59:09.821Z,29.02
2022-08-16T17:01:59.736Z,28.76
2022-08-16T17:04:33.000Z,28.34
2022-08-16T17:07:02.026Z,28.12
2022-08-16T17:09:30.017Z,27.99
2022-08-16T17:11:57.309Z,27.91
2022-08-16T17:14:33.313Z,27.88
2022-08-16T17:17:06.879Z,27.76
2022-08-16T17:19:41.313Z,27.59
2022-08-16T17:22:16.118Z,27.52
2022-08-16T17:24:52.484Z,27.34
2022-08-16T17:27:32.473Z,27.40
2022-08-16T17:30:15.971Z,27.35
2022-08-16T17:32:48.456Z,27.21
2022-08-16T17:35:23.121Z,27.15
2022-08-16T17:37:51.831Z,27.12
2022-08-16T17:40:47.480Z,27.08
2022-08-16T17:43:19.383Z,26.95
2022-08-16T17:45:47.507Z,26.73
2022-08-16T17:48:14.574Z,26.75
2022-08-16T17:50:42.471Z,26.75
2022-08-16T17:53:10.786Z,26.66
2022-08-16T17:55:42.173Z,26.45
2022-08-16T17:58:23.373Z,26.32
2022-08-16T18:00:57.554Z,26.07
2022-08-16T18:04:06.764Z,25.84
2022-08-16T18:06:24.373Z,25.64
2022-08-16T18:08:57.837Z,25.60
2022-08-16T18:11:30.200Z,25.38
2022-08-16T18:13:59.902Z,25.37
2022-08-16T18:16:26.987Z,25.26
2022-08-16T18:18:53.821Z,24.98
2022-08-16T18:21:39.901Z,24.88
2022-08-16T18:24:07.148Z,24.62
2022-08-16T18:26:34.136Z,24.49
2022-08-16T18:29:01.067Z,24.53
2022-08-16T18:31:27.863Z,24.52
2022-08-16T18:33:55.972Z,24.42
2022-08-16T18:36:24.481Z,24.29
2022-08-16T18:38:53.422Z,24.24
2022-08-16T18:41:23.283Z,24.13
2022-08-16T18:43:54.386Z,24.01
2022-08-16T18:46:48.866Z,23.84
2022-08-16T18:49:18.789Z,23.70
2022-08-16T18:51:45.733Z,23.52
2022-08-16T18:54:18.132Z,23.47
2022-08-16T18:56:55.775Z,23.36
2022-08-16T18:59:29.920Z,23.17
2022-08-16T19:02:00.187Z,23.08
2022-08-16T19:04:56.754Z,22.96
2022-08-16T19:07:21.435Z,22.66
2022-08-16T19:09:48.329Z,22.60
2022-08-16T19:12:16.040Z,22.46
2022-08-16T19:14:45.597Z,22.16
2022-08-16T19:17:12.501Z,21.98
2022-08-16T19:19:39.300Z,22.01
2022-08-16T19:22:06.655Z,22.01
2022-08-16T19:24:33.465Z,21.97
2022-08-16T19:27:01.618Z,21.93
2022-08-16T19:29:29.019Z,21.85
2022-08-16T19:31:55.791Z,21.76
2022-08-16T19:34:22.627Z,21.62
2022-08-16T19:36:49.467Z,21.55
2022-08-16T19:39:17.518Z,21.47
2022-08-16T19:41:53.874Z,21.18
2022-08-16T19:44:22.472Z,21.06
2022-08-16T19:46:49.710Z,21.09
2022-08-16T19:49:17.095Z,20.91
2022-08-16T19:51:45.946Z,20.86
2022-08-16T19:54:12.846Z,20.89
2022-08-16T19:56:39.616Z,20.86
2022-08-16T19:59:39.984Z,20.81
2022-08-16T20:01:53.301Z,20.64
2022-08-16T20:04:22.146Z,20.55
2022-08-16T20:06:49.766Z,20.49
2022-08-16T20:09:16.600Z,20.48
2022-08-16T20:11:48.733Z,20.44
2022-08-16T20:14:24.601Z,20.17
2022-08-16T20:16:57.597Z,20.16
2022-08-16T20:19:29.655Z,20.10
2022-08-16T20:22:42.246Z,20.06
2022-08-16T20:25:12.010Z,20.04
2022-08-16T20:27:40.251Z,19.81
2022-08-16T20:30:09.658Z,19.71
2022-08-16T20:32:37.243Z,19.65
2022-08-16T20:35:07.587Z,19.58
2022-08-16T20:37:37.359Z,19.40
2022-08-16T20:40:33.854Z,19.21
2022-08-16T20:43:16.488Z,19.19
2022-08-16T20:45:45.971Z,19.25
2022-08-16T20:48:13.544Z,19.25
2022-08-16T20:50:41.398Z,19.25
2022-08-16T20:53:09.017Z,19.23
2022-08-16T20:55:37.318Z,19.19
2022-08-16T20:58:04.672Z,19.04
2022-08-16T21:00:33.588Z,18.94
2022-08-16T21:03:05.856Z,18.91
2022-08-16T21:05:32.649Z,18.88
2022-08-16T21:08:00.076Z,18.69
2022-08-16T21:10:27.242Z,18.78
2022-08-16T21:12:59.436Z,18.84
2022-08-16T21:15:27.939Z,18.76
2022-08-16T21:17:54.908Z,18.46
2022-08-16T21:20:23.667Z,18.33
2022-08-16T21:23:10.118Z,18.27
2022-08-16T21:25:42.909Z,18.35
2022-08-16T21:28:40.447Z,18.46
2022-08-16T21:31:11.826Z,18.40
2022-08-16T21:33:39.334Z,18.37
2022-08-16T21:36:06.525Z,18.40
2022-08-16T21:38:33.341Z,18.28
2022-08-16T21:41:01.736Z,18.21
2022-08-16T21:43:32.303Z,18.25
2022-08-16T21:46:04.419Z,18.25
2022-08-16T21:48:36.109Z,18.26
2022-08-16T21:51:06.677Z,18.24
2022-08-16T21:53:34.200Z,17.99
2022-08-16T21:56:01.814Z,17.95
2022-08-16T21:58:30.270Z,17.96
2022-08-16T22:00:57.623Z,17.95
2022-08-16T22:03:25.012Z,18.00
2022-08-16T22:06:12.186Z,18.03
2022-08-16T22:08:50.557Z,17.84
2022-08-16T22:11:25.820Z,17.55
2022-08-16T22:13:57.624Z,17.47
2022-08-16T22:16:32.931Z,17.42
2022-08-16T22:19:01.512Z,17.06
2022-08-16T22:21:29.401Z,17.06
2022-08-16T22:23:58.800Z,17.03
2022-08-16T22:26:32.487Z,17.03
2022-08-16T22:29:06.995Z,17.09
2022-08-16T22:31:34.777Z,17.15
2022-08-16T22:34:02.403Z,17.23
2022-08-16T22:36:31.549Z,17.23
2022-08-16T22:39:00.971Z,17.16
2022-08-16T22:41:31.849Z,17.15
2022-08-16T22:43:59.926Z,17.04
2022-08-16T22:46:26.970Z,16.95
2022-08-16T22:48:54.509Z,16.87
2022-08-16T22:51:24.330Z,16.61
2022-08-16T22:53:52.137Z,16.58
2022-08-16T22:56:20.576Z,16.60
2022-08-16T22:58:47.874Z,16.55
2022-08-16T23:01:17.737Z,16.47
2022-08-16T23:03:44.807Z,16.38
2022-08-16T23:06:13.149Z,16.36
2022-08-16T23:08:42.271Z,16.33
2022-08-16T23:11:13.185Z,16.34
2022-08-16T23:13:50.102Z,16.28
2022-08-16T23:16:25.077Z,16.32
2022-08-16T23:19:04.066Z,16.48
2022-08-16T23:21:31.391Z,16.35
2022-08-16T23:23:58.412Z,16.21
2022-08-16T23:26:47.204Z,16.29
2022-08-16T23:29:24.832Z,16.20
2022-08-16T23:32:11.540Z,16.18
2022-08-16T23:34:38.509Z,16.09
2022-08-16T23:37:06.720Z,16.06
2022-08-16T23:39:34.557Z,16.17
2022-08-16T23:42:02.061Z,16.27
2022-08-16T23:44:56.186Z,16.29
2022-08-16T23:47:15.577Z,16.27
2022-08-16T23:49:57.445Z,16.28
2022-08-16T23:52:53.986Z,16.14
2022-08-16T23:55:17.245Z,15.99
2022-08-16T23:57:44.667Z,15.88
